Time;durP1;ratioP1;P1;durP2;ratioP2;P2;SDS_P1;SDS_P2;PMS_P1;PMS_P2;Temp;Humidity;BMP_temperature;BMP_pressure;BME280_temperature;BME280_humidity;BME280_pressure;Samples;Min_cycle;Max_cycle;Signal;HPM_P1;HPM_P2
2022/12/18 00:02:12;;;;;;;7.07;4.60;;;;;;;8.08;91.23;95583.31;4985634;28;20527;-78
2022/12/18 00:04:38;;;;;;;5.73;3.97;;;;;;;7.81;90.98;95555.03;4983913;28;20432;-78
2022/12/18 00:07:03;;;;;;;5.60;4.20;;;;;;;8.02;91.31;95594.53;4986798;28;20475;-77
2022/12/18 00:09:29;;;;;;;6.23;3.80;;;;;;;7.83;91.14;95571.41;4992652;28;20962;-77
2022/12/18 00:11:54;;;;;;;6.87;4.57;;;;;;;7.90;90.76;95594.09;4986736;28;20542;-77
2022/12/18 00:14:20;;;;;;;6.27;4.57;;;;;;;7.88;90.64;95593.47;4985983;28;20970;-77
2022/12/18 00:16:46;;;;;;;8.30;5.00;;;;;;;7.72;91.04;95577.88;4984434;28;20447;-77
2022/12/18 00:19:13;;;;;;;7.60;4.90;;;;;;;7.92;90.54;95599.19;4984119;28;20498;-78
2022/12/18 00:21:41;;;;;;;5.67;4.43;;;;;;;7.91;89.86;95603.59;4994008;28;20275;-78
2022/12/18 00:24:08;;;;;;;8.05;5.15;;;;;;;7.74;90.26;95586.38;4989350;28;20518;-78
2022/12/18 00:26:34;;;;;;;9.27;5.33;;;;;;;7.83;90.16;95602.84;5002473;28;20181;-78
2022/12/18 00:29:09;;;;;;;8.20;5.18;;;;;;;7.65;90.12;95587.41;4987327;28;20436;-78
2022/12/18 00:31:35;;;;;;;8.15;5.00;;;;;;;7.70;90.38;95615.72;4990342;28;20426;-77
2022/12/18 00:34:01;;;;;;;6.33;4.37;;;;;;;7.51;90.78;95614.38;4994009;28;20271;-77
2022/12/18 00:36:29;;;;;;;7.00;4.90;;;;;;;7.51;91.30;95627.47;4993792;28;20969;-78
2022/12/18 00:38:58;;;;;;;7.97;4.23;;;;;;;7.42;91.25;95607.56;4995328;28;20173;-79
2022/12/18 00:44:11;;;;;;;7.10;4.95;;;;;;;7.57;90.58;95632.84;5007196;28;20437;-77
2022/12/18 00:46:37;;;;;;;7.13;4.85;;;;;;;7.48;89.89;95633.88;5004957;28;20912;-77
2022/12/18 00:49:03;;;;;;;7.33;4.70;;;;;;;7.29;90.25;95641.31;5006445;28;20184;-78
2022/12/18 00:51:29;;;;;;;9.52;5.82;;;;;;;7.03;90.88;95611.00;5006450;28;20408;-77
2022/12/18 00:53:54;;;;;;;8.57;5.57;;;;;;;7.20;91.40;95632.69;5011823;28;20422;-77
2022/12/18 00:56:22;;;;;;;6.87;5.10;;;;;;;7.20;91.09;95632.69;5012897;28;21011;-77
2022/12/18 00:58:48;;;;;;;6.80;5.18;;;;;;;7.20;90.63;95646.59;4995280;28;20416;-77
2022/12/18 01:01:14;;;;;;;7.43;5.97;;;;;;;7.21;90.87;95647.41;4998757;28;20639;-78
2022/12/18 01:03:39;;;;;;;11.77;6.10;;;;;;;7.22;90.93;95649.06;4997398;28;20856;-78
2022/12/18 01:06:07;;;;;;;9.17;5.70;;;;;;;7.11;90.38;95650.22;5003075;28;20438;-78
2022/12/18 01:08:32;;;;;;;7.38;5.43;;;;;;;7.10;91.03;95651.22;4998096;28;20408;-78
2022/12/18 01:10:58;;;;;;;6.68;4.45;;;;;;;6.91;90.28;95641.16;5002223;28;20420;-78
2022/12/18 01:13:24;;;;;;;8.07;5.43;;;;;;;6.66;91.11;95653.47;4991075;28;20424;-79
2022/12/18 01:15:50;;;;;;;7.50;5.30;;;;;;;6.73;91.45;95662.31;5003631;28;20200;-79
2022/12/18 01:18:15;;;;;;;9.68;5.65;;;;;;;6.68;91.93;95645.47;5009636;28;20448;-79
2022/12/18 01:20:41;;;;;;;9.82;5.82;;;;;;;6.80;90.95;95663.28;4993423;28;20416;-79
2022/12/18 01:23:06;;;;;;;9.23;5.93;;;;;;;6.60;90.91;95661.19;5000315;28;20470;-79
2022/12/18 01:25:33;;;;;;;9.63;6.13;;;;;;;6.52;91.24;95643.69;4992337;28;20831;-79
2022/12/18 01:27:58;;;;;;;8.13;5.80;;;;;;;6.59;91.56;95643.84;4991695;28;20431;-79
2022/12/18 01:30:24;;;;;;;9.50;6.07;;;;;;;6.66;91.01;95648.25;5001352;28;20416;-79
2022/12/18 01:32:49;;;;;;;9.47;6.07;;;;;;;6.82;90.78;95671.78;4995958;28;21204;-79
2022/12/18 01:35:14;;;;;;;9.20;5.80;;;;;;;6.64;90.15;95639.75;4998140;28;20997;-78
2022/12/18 01:37:40;;;;;;;10.77;6.10;;;;;;;6.76;90.45;95672.41;5002038;28;20174;-78
2022/12/18 01:40:06;;;;;;;9.60;6.43;;;;;;;6.66;91.11;95656.09;5007604;28;20407;-79
2022/12/18 01:42:31;;;;;;;8.30;6.00;;;;;;;6.51;90.86;95631.59;5012851;28;20500;-79
2022/12/18 01:45:06;;;;;;;9.37;4.83;;;;;;;6.83;90.74;95675.22;5011781;28;20223;-79
2022/12/18 01:47:47;;;;;;;7.27;4.63;;;;;;;6.71;90.47;95664.28;5009115;28;20211;-79
2022/12/18 01:50:16;;;;;;;8.10;4.73;;;;;;;6.78;90.49;95677.50;5005487;28;20208;-80
2022/12/18 01:52:46;;;;;;;7.60;5.20;;;;;;;6.56;90.18;95657.28;5013306;28;20502;-80
2022/12/18 01:55:13;;;;;;;9.95;5.93;;;;;;;6.38;91.48;95667.91;5003590;28;20432;-80
2022/12/18 01:57:39;;;;;;;8.32;5.40;;;;;;;6.43;91.56;95684.75;5008204;28;20976;-80
2022/12/18 02:00:14;;;;;;;8.95;5.65;;;;;;;6.26;91.67;95641.28;5001570;28;20595;-79
2022/12/18 02:02:42;;;;;;;10.43;6.38;;;;;;;6.41;91.83;95684.06;5005122;28;20422;-80
2022/12/18 02:05:10;;;;;;;10.45;6.68;;;;;;;6.53;91.27;95681.94;5004628;28;20407;-80
2022/12/18 02:08:16;;;;;;;8.73;4.90;;;;;;;6.60;91.24;95689.94;4988313;28;20219;-79
2022/12/18 02:10:47;;;;;;;9.77;5.63;;;;;;;6.64;90.94;95680.81;4986577;28;20429;-79
2022/12/18 02:13:27;;;;;;;6.47;4.67;;;;;;;6.63;90.42;95692.25;5001437;28;20832;-80
2022/12/18 02:16:07;;;;;;;9.07;5.40;;;;;;;6.62;90.69;95696.66;4985992;28;20431;-80
2022/12/18 02:18:38;;;;;;;8.05;5.22;;;;;;;6.58;91.02;95691.91;4993739;28;20420;-79
2022/12/18 02:21:23;;;;;;;9.45;5.85;;;;;;;6.68;90.94;95703.84;4991069;28;20494;-80
2022/12/18 02:24:21;;;;;;;9.90;5.78;;;;;;;6.76;90.44;95700.38;5001425;28;20960;-80
2022/12/18 02:26:50;;;;;;;9.23;5.45;;;;;;;6.74;89.58;95700.56;4989222;28;20442;-79
2022/12/18 02:29:48;;;;;;;7.40;5.38;;;;;;;6.67;89.68;95702.19;4999510;28;20420;-80
2022/12/18 02:32:17;;;;;;;11.30;7.00;;;;;;;6.35;90.44;95674.28;4997129;28;20931;-80
2022/12/18 02:34:44;;;;;;;7.07;5.38;;;;;;;6.51;90.17;95690.94;5009672;28;20421;-80
2022/12/18 02:37:15;;;;;;;9.20;5.57;;;;;;;6.59;90.08;95711.84;4999292;28;20787;-79
2022/12/18 02:39:43;;;;;;;8.97;4.77;;;;;;;6.51;90.11;95717.09;5000881;28;20196;-80
2022/12/18 02:42:09;;;;;;;8.05;5.40;;;;;;;6.44;90.29;95709.91;4999082;28;21224;-80
2022/12/18 02:44:45;;;;;;;10.30;5.32;;;;;;;6.48;90.34;95718.25;4999783;28;20427;-80
2022/12/18 02:47:13;;;;;;;8.13;5.22;;;;;;;6.16;90.69;95682.44;5007594;28;20425;-80
2022/12/18 02:49:47;;;;;;;7.65;5.43;;;;;;;6.44;90.97;95722.97;5003966;28;20419;-80
2022/12/18 02:52:22;;;;;;;8.65;5.90;;;;;;;6.42;91.04;95727.56;5002211;28;20937;-80
2022/12/18 02:55:05;;;;;;;7.30;5.03;;;;;;;6.46;90.35;95720.22;4998980;28;20184;-79
2022/12/18 02:57:46;;;;;;;9.75;5.90;;;;;;;6.53;91.03;95715.13;4990698;28;20896;-79
2022/12/18 03:00:23;;;;;;;7.80;5.32;;;;;;;6.47;90.27;95714.00;5007456;28;20414;-79
2022/12/18 03:02:54;;;;;;;9.07;6.65;;;;;;;6.37;90.77;95706.31;4991555;28;20419;-80
2022/12/18 03:05:31;;;;;;;9.23;6.50;;;;;;;6.35;90.15;95697.00;4998747;28;20455;-79
2022/12/18 03:08:01;;;;;;;9.23;5.83;;;;;;;6.45;90.28;95718.56;4957960;28;1131210;-79
2022/12/18 03:10:30;;;;;;;8.43;5.30;;;;;;;6.41;90.08;95722.47;5010863;28;20437;-79
2022/12/18 03:13:06;;;;;;;8.65;5.63;;;;;;;6.31;89.72;95704.34;5003435;28;20461;-80
2022/12/18 03:15:38;;;;;;;8.32;5.32;;;;;;;6.32;90.04;95726.91;5010531;28;20427;-78
2022/12/18 03:18:10;;;;;;;7.90;4.97;;;;;;;6.26;89.72;95735.41;5011643;28;20417;-78
2022/12/18 03:20:38;;;;;;;9.18;6.10;;;;;;;5.85;90.20;95708.38;5002182;28;20410;-78
2022/12/18 03:23:10;;;;;;;8.83;5.60;;;;;;;6.07;90.80;95739.13;4996440;28;20252;-78
2022/12/18 03:25:41;;;;;;;8.67;5.43;;;;;;;5.96;91.35;95712.50;4994946;28;21016;-78
2022/12/18 03:28:10;;;;;;;8.37;5.23;;;;;;;6.07;90.67;95741.75;5004447;28;20168;-78
2022/12/18 03:30:39;;;;;;;9.07;5.60;;;;;;;6.13;91.00;95737.69;5010563;28;20797;-78
2022/12/18 03:33:23;;;;;;;9.60;5.43;;;;;;;6.14;90.63;95749.75;4995735;28;20202;-79
2022/12/18 03:35:49;;;;;;;9.00;4.83;;;;;;;6.04;90.75;95728.19;5003623;28;20204;-79
2022/12/18 03:38:15;;;;;;;9.73;4.50;;;;;;;6.26;89.82;95750.25;5003574;28;20418;-78
2022/12/18 03:41:08;;;;;;;7.13;4.60;;;;;;;6.28;89.31;95759.59;4996441;28;20420;-78
2022/12/18 03:43:54;;;;;;;10.13;5.13;;;;;;;6.31;88.48;95764.47;4992273;28;20196;-78
2022/12/18 03:46:48;;;;;;;8.68;5.10;;;;;;;6.32;88.98;95765.28;4992019;28;20408;-77
2022/12/18 03:49:28;;;;;;;9.27;5.35;;;;;;;6.39;88.91;95774.97;4988268;28;20866;-77
2022/12/18 03:52:09;;;;;;;8.10;4.72;;;;;;;6.47;87.91;95779.38;4991752;28;20420;-78
2022/12/18 03:54:36;;;;;;;7.80;4.47;;;;;;;6.41;87.48;95769.56;5005303;28;20977;-78
2022/12/18 03:57:11;;;;;;;8.82;4.95;;;;;;;6.40;88.45;95781.81;5009966;28;21093;-78
2022/12/18 03:59:38;;;;;;;8.32;5.13;;;;;;;6.22;87.95;95754.19;5006194;28;20436;-78
2022/12/18 04:02:06;;;;;;;8.55;5.43;;;;;;;6.27;87.10;95775.44;5013514;28;20413;-78
2022/12/18 04:04:33;;;;;;;10.45;5.75;;;;;;;6.25;87.89;95787.84;5013296;28;20510;-77
2022/12/18 04:06:59;;;;;;;9.27;5.97;;;;;;;6.10;88.09;95777.19;4998592;28;20432;-77
2022/12/18 04:09:25;;;;;;;8.55;5.45;;;;;;;6.17;87.35;95793.06;5003817;28;20425;-77
2022/12/18 04:11:51;;;;;;;8.40;5.75;;;;;;;6.14;87.55;95796.00;5000665;28;20422;-78
2022/12/18 04:14:17;;;;;;;8.33;5.97;;;;;;;6.07;87.20;95801.84;4993944;28;20415;-77
2022/12/18 04:16:42;;;;;;;12.33;6.90;;;;;;;6.04;87.51;95810.03;4997163;28;20430;-78
2022/12/18 04:19:08;;;;;;;10.97;6.67;;;;;;;5.80;87.58;95802.06;4999267;28;20977;-78
2022/12/18 04:21:33;;;;;;;12.30;7.30;;;;;;;5.73;88.26;95816.72;5003128;28;20427;-78
2022/12/18 04:23:58;;;;;;;12.47;7.37;;;;;;;5.80;88.75;95815.13;5004054;28;20173;-78
2022/12/18 04:26:24;;;;;;;9.93;6.50;;;;;;;5.77;88.22;95812.03;5010552;28;20525;-78
2022/12/18 04:28:49;;;;;;;10.15;6.30;;;;;;;5.88;88.62;95822.22;5006918;28;20420;-77
2022/12/18 04:31:15;;;;;;;10.20;5.77;;;;;;;5.99;87.76;95822.75;5003462;28;20195;-78
2022/12/18 04:33:40;;;;;;;10.23;6.50;;;;;;;5.97;87.42;95832.53;5003255;28;20412;-78
2022/12/18 04:36:06;;;;;;;10.60;6.87;;;;;;;5.99;87.33;95833.19;5013274;28;20434;-78
2022/12/18 04:38:32;;;;;;;9.70;6.45;;;;;;;6.07;87.07;95827.16;5013282;28;20415;-78
2022/12/18 04:40:57;;;;;;;9.40;6.40;;;;;;;6.19;85.81;95838.16;4994618;28;20412;-78
2022/12/18 04:43:23;;;;;;;10.60;6.43;;;;;;;6.22;85.73;95851.75;4999673;28;20418;-78
2022/12/18 04:45:48;;;;;;;11.77;7.13;;;;;;;6.27;84.09;95852.06;5005739;28;20426;-78
2022/12/18 04:48:14;;;;;;;13.07;7.57;;;;;;;6.19;83.59;95838.97;4998713;28;20412;-78
2022/12/18 04:50:39;;;;;;;11.83;7.00;;;;;;;6.19;83.70;95849.44;4999759;28;20472;-78
2022/12/18 04:53:04;;;;;;;13.77;8.17;;;;;;;6.21;83.24;95860.56;5004156;28;20475;-78
2022/12/18 04:55:30;;;;;;;12.27;7.47;;;;;;;6.13;82.66;95852.69;5001048;28;20482;-78
2022/12/18 04:57:55;;;;;;;13.00;7.90;;;;;;;6.25;82.82;95871.50;5001044;28;20480;-78
2022/12/18 05:00:22;;;;;;;12.13;7.60;;;;;;;6.28;82.88;95879.03;4998815;28;21048;-78
2022/12/18 05:02:47;;;;;;;14.70;7.50;;;;;;;6.25;83.35;95882.78;5002446;28;20580;-78
2022/12/18 05:05:13;;;;;;;13.33;7.83;;;;;;;6.01;83.08;95860.00;4993358;28;20408;-78
2022/12/18 05:07:39;;;;;;;19.27;10.15;;;;;;;6.09;83.38;95887.97;4993322;28;20803;-78
2022/12/18 05:10:08;;;;;;;16.92;8.90;;;;;;;5.97;83.52;95897.84;4992906;28;20957;-78
2022/12/18 05:12:33;;;;;;;16.48;8.25;;;;;;;5.93;83.83;95893.13;5012396;28;20410;-78
2022/12/18 05:14:58;;;;;;;13.00;8.43;;;;;;;5.85;84.46;95896.47;5012087;28;20406;-78
2022/12/18 05:17:24;;;;;;;16.43;9.00;;;;;;;5.82;84.24;95885.50;4994421;28;20526;-78
2022/12/18 05:19:49;;;;;;;17.43;9.17;;;;;;;5.83;84.81;95887.97;4998902;28;20185;-78
2022/12/18 05:22:15;;;;;;;16.25;10.20;;;;;;;5.91;84.46;95903.72;5004639;28;20500;-78
2022/12/18 05:24:40;;;;;;;15.27;9.57;;;;;;;5.79;85.11;95896.28;4996309;28;20953;-78
2022/12/18 05:27:06;;;;;;;16.50;9.60;;;;;;;5.85;84.63;95901.72;5007511;28;20463;-78
2022/12/18 05:29:31;;;;;;;12.83;8.03;;;;;;;5.89;84.58;95916.13;5002481;28;20268;-78
2022/12/18 05:31:56;;;;;;;18.80;9.73;;;;;;;5.83;84.69;95916.72;5001789;28;20420;-78
2022/12/18 05:34:22;;;;;;;14.97;8.87;;;;;;;5.92;84.18;95921.03;4993323;28;20511;-77
2022/12/18 05:36:47;;;;;;;13.83;8.43;;;;;;;5.98;83.91;95927.44;5010880;28;20944;-78
2022/12/18 05:39:12;;;;;;;14.33;9.20;;;;;;;5.80;83.97;95916.19;5011846;28;20425;-78
2022/12/18 05:41:38;;;;;;;16.40;8.77;;;;;;;6.02;83.51;95934.81;5002090;28;20184;-78
2022/12/18 05:44:03;;;;;;;14.87;8.53;;;;;;;6.01;83.39;95941.00;5003476;28;20421;-78
2022/12/18 05:46:29;;;;;;;15.50;8.53;;;;;;;5.97;84.04;95950.13;5005321;28;20252;-78
2022/12/18 05:48:54;;;;;;;16.83;10.00;;;;;;;5.77;84.22;95924.34;5010365;28;20464;-78
2022/12/18 05:51:21;;;;;;;17.17;8.70;;;;;;;5.88;83.22;95945.81;5000469;28;20215;-78
2022/12/18 05:53:48;;;;;;;19.08;10.95;;;;;;;5.73;82.91;95946.53;4998506;28;20418;-78
2022/12/18 05:56:19;;;;;;;19.50;11.10;;;;;;;5.42;83.48;95938.31;5003365;28;20433;-78
2022/12/18 05:58:44;;;;;;;17.02;9.93;;;;;;;5.47;83.36;95952.56;4996691;28;20419;-78
2022/12/18 06:01:13;;;;;;;20.60;11.23;;;;;;;5.46;83.57;95935.25;5000189;28;20942;-78
2022/12/18 06:03:39;;;;;;;18.45;10.38;;;;;;;5.67;83.10;95961.84;5006650;28;20423;-78
2022/12/18 06:06:12;;;;;;;15.80;10.00;;;;;;;5.45;83.10;95935.41;5004182;28;20426;-78
2022/12/18 06:08:37;;;;;;;16.17;10.32;;;;;;;5.55;83.22;95963.06;5006386;28;20429;-77
2022/12/18 06:11:02;;;;;;;17.40;10.40;;;;;;;5.61;83.54;95966.88;4993283;28;20408;-77
2022/12/18 06:13:28;;;;;;;17.70;10.33;;;;;;;5.58;83.91;95968.00;4997079;28;20613;-76
2022/12/18 06:15:53;;;;;;;20.93;9.23;;;;;;;5.62;84.05;95971.91;4999432;28;20204;-77
2022/12/18 06:18:19;;;;;;;19.05;10.30;;;;;;;5.64;83.78;95971.78;5010861;28;20414;-76
2022/12/18 06:20:44;;;;;;;19.20;10.80;;;;;;;5.65;83.69;95971.63;5011277;28;20168;-76
2022/12/18 06:23:09;;;;;;;23.40;12.70;;;;;;;5.72;83.68;95976.22;4996579;28;20420;-76
2022/12/18 06:25:37;;;;;;;23.80;13.17;;;;;;;5.62;83.66;95987.59;4990745;28;20903;-76
2022/12/18 06:28:03;;;;;;;19.73;12.00;;;;;;;5.64;84.02;95984.81;4990603;28;20521;-76
2022/12/18 06:30:28;;;;;;;18.38;10.75;;;;;;;5.74;83.75;95985.56;4990915;28;20934;-76
2022/12/18 06:32:54;;;;;;;18.93;10.47;;;;;;;5.78;82.88;95979.06;4991818;28;20891;-76
2022/12/18 06:35:19;;;;;;;21.95;12.32;;;;;;;5.82;83.46;95990.00;4990185;28;20434;-76
2022/12/18 06:37:44;;;;;;;23.00;13.57;;;;;;;5.66;83.45;95967.22;5009862;28;20556;-76
2022/12/18 06:40:10;;;;;;;21.80;12.27;;;;;;;5.79;84.42;95992.94;5002397;28;20402;-76
2022/12/18 06:42:35;;;;;;;17.47;10.10;;;;;;;5.82;83.64;95996.06;5006111;28;20180;-76
2022/12/18 06:45:02;;;;;;;20.47;12.07;;;;;;;5.81;83.02;95985.75;5010207;28;20493;-76
2022/12/18 06:47:28;;;;;;;16.97;9.43;;;;;;;5.81;82.98;95994.41;4995768;28;20165;-76
2022/12/18 06:49:53;;;;;;;17.57;10.30;;;;;;;5.95;83.54;96006.97;4990937;28;20090;-76
2022/12/18 06:52:18;;;;;;;19.30;11.83;;;;;;;5.96;83.66;96005.19;4981688;28;20431;-76
2022/12/18 06:54:44;;;;;;;18.73;10.93;;;;;;;5.97;83.19;96017.25;4982768;28;20431;-76
2022/12/18 06:57:09;;;;;;;18.13;10.63;;;;;;;5.89;83.12;96018.03;4985343;28;20509;-76
2022/12/18 06:59:34;;;;;;;20.17;10.23;;;;;;;5.99;82.31;96018.75;4991092;28;20173;-76
2022/12/18 07:02:00;;;;;;;18.53;9.73;;;;;;;5.73;81.57;95964.81;5001896;28;20924;-75
2022/12/18 07:04:30;;;;;;;15.07;8.90;;;;;;;5.93;81.80;96011.53;5003107;28;20181;-77
2022/12/18 07:06:55;;;;;;;19.90;11.50;;;;;;;6.02;81.82;96021.06;4990059;28;20518;-77
2022/12/18 07:09:20;;;;;;;18.93;9.23;;;;;;;5.94;81.07;96015.78;4989689;28;20204;-77
2022/12/18 07:11:46;;;;;;;16.67;9.83;;;;;;;5.98;80.92;96016.28;4989770;28;20478;-75
2022/12/18 07:14:11;;;;;;;17.20;10.05;;;;;;;6.03;80.74;96027.94;5007190;28;20083;-74
2022/12/18 07:16:37;;;;;;;17.37;9.90;;;;;;;6.12;80.98;96035.81;5009917;28;20434;-76
2022/12/18 07:19:02;;;;;;;18.27;10.60;;;;;;;6.02;80.89;96034.13;4994916;28;20424;-74
2022/12/18 07:21:27;;;;;;;19.70;10.50;;;;;;;5.64;80.98;95995.28;4989379;28;20411;-76
2022/12/18 07:23:53;;;;;;;20.37;11.47;;;;;;;5.72;80.52;96037.13;4999168;28;20831;-76
2022/12/18 07:26:21;;;;;;;21.03;11.73;;;;;;;5.46;81.69;96017.97;4989381;28;20528;-76
2022/12/18 07:28:47;;;;;;;22.27;12.10;;;;;;;5.46;82.38;96021.41;4988818;28;20637;-77
2022/12/18 07:31:16;;;;;;;19.57;10.83;;;;;;;5.46;82.13;96023.19;4991355;28;20220;-77
2022/12/18 07:33:42;;;;;;;24.00;12.37;;;;;;;5.57;81.56;96034.25;4992300;28;20495;-76
2022/12/18 07:36:09;;;;;;;22.20;12.38;;;;;;;5.53;81.55;96045.97;4993518;28;20456;-76
2022/12/18 07:38:35;;;;;;;23.80;12.93;;;;;;;5.36;82.06;96033.75;4993652;28;20531;-76
2022/12/18 07:41:02;;;;;;;22.58;12.30;;;;;;;5.47;82.77;96056.19;5001165;28;20571;-76
2022/12/18 07:43:27;;;;;;;24.52;14.55;;;;;;;5.45;82.58;96055.53;5013519;28;20420;-76
2022/12/18 07:45:52;;;;;;;24.83;13.93;;;;;;;5.51;82.49;96053.13;5013478;28;20418;-76
2022/12/18 07:48:18;;;;;;;26.27;15.10;;;;;;;5.53;81.63;96056.44;5013451;28;20425;-76
2022/12/18 07:50:43;;;;;;;25.47;15.13;;;;;;;5.46;82.72;96055.34;5012566;28;20497;-76
2022/12/18 07:53:08;;;;;;;25.27;14.37;;;;;;;5.47;82.68;96059.63;5012154;28;20902;-77
2022/12/18 07:55:34;;;;;;;26.87;14.07;;;;;;;5.50;82.72;96069.78;5013514;28;20429;-76
2022/12/18 07:58:03;;;;;;;24.60;13.60;;;;;;;5.37;82.34;96061.47;5013157;28;20412;-75
2022/12/18 08:00:30;;;;;;;26.23;12.57;;;;;;;5.54;82.37;96072.88;5013916;28;20169;-75
2022/12/18 08:02:56;;;;;;;22.58;12.30;;;;;;;5.55;82.26;96067.53;5013116;28;20445;-76
2022/12/18 08:05:22;;;;;;;28.35;16.00;;;;;;;5.60;82.55;96080.97;5012885;28;20426;-77
2022/12/18 08:07:47;;;;;;;29.90;15.27;;;;;;;5.23;83.10;96017.63;5013105;28;20224;-76
2022/12/18 08:10:13;;;;;;;24.03;13.50;;;;;;;5.63;82.17;96083.25;5012864;28;20472;-77
2022/12/18 08:12:39;;;;;;;26.33;15.02;;;;;;;5.48;82.14;96084.75;5000698;28;20439;-79
2022/12/18 08:15:05;;;;;;;24.23;13.38;;;;;;;5.57;81.83;96086.47;4993839;28;20853;-74
2022/12/18 08:17:31;;;;;;;28.60;13.10;;;;;;;5.54;81.85;96091.16;4994220;28;21010;-76
2022/12/18 08:19:56;;;;;;;25.67;14.33;;;;;;;5.31;81.82;96069.91;4992231;28;20519;-77
2022/12/18 08:22:21;;;;;;;26.07;13.83;;;;;;;5.37;81.95;96091.97;4993379;28;20404;-77
2022/12/18 08:24:47;;;;;;;23.70;13.15;;;;;;;5.30;82.64;96094.38;4992405;28;20492;-75
2022/12/18 08:27:12;;;;;;;25.30;12.83;;;;;;;5.28;82.66;96080.63;4993298;28;20181;-76
2022/12/18 08:29:38;;;;;;;24.53;11.57;;;;;;;5.32;81.99;96097.66;4989491;28;20291;-74
2022/12/18 08:32:03;;;;;;;21.73;10.50;;;;;;;5.43;82.56;96105.28;4988520;28;20185;-74
2022/12/18 08:34:29;;;;;;;26.73;13.63;;;;;;;5.23;82.28;96065.44;4982346;28;20178;-77
2022/12/18 08:36:54;;;;;;;26.63;12.77;;;;;;;5.44;81.56;96114.75;4988669;28;20436;-77
2022/12/18 08:39:21;;;;;;;26.10;11.80;;;;;;;5.45;81.13;96118.19;4987619;28;20176;-75
2022/12/18 08:44:37;;;;;;;25.00;13.07;;;;;;;5.46;81.83;96123.25;4986082;28;20876;-77
2022/12/18 08:44:37;;;;;;;26.17;14.88;;;;;;;5.57;80.69;96125.66;4987460;28;20429;-76
2022/12/18 08:47:04;;;;;;;22.77;12.30;;;;;;;5.53;79.94;96118.28;4985860;28;20511;-77
2022/12/18 08:49:29;;;;;;;26.27;11.93;;;;;;;5.36;79.79;96106.03;4981979;28;20652;-76
2022/12/18 08:51:57;;;;;;;18.13;9.97;;;;;;;5.31;79.73;96103.84;4985776;28;20192;-76
2022/12/18 08:54:23;;;;;;;21.63;11.83;;;;;;;5.38;80.19;96130.19;4985285;28;20631;-78
2022/12/18 08:56:49;;;;;;;23.13;11.47;;;;;;;5.45;80.57;96121.59;4999440;28;20212;-77
2022/12/18 08:59:15;;;;;;;26.00;12.60;;;;;;;5.44;81.47;96114.75;4988388;28;20184;-77
2022/12/18 09:01:41;;;;;;;19.47;10.67;;;;;;;5.35;80.65;96089.53;4983782;28;20173;-76
2022/12/18 09:04:07;;;;;;;25.10;10.83;;;;;;;5.30;79.74;96105.63;4990360;28;20189;-77
2022/12/18 09:06:33;;;;;;;21.07;10.80;;;;;;;5.47;80.67;96124.06;4980807;28;20312;-76
2022/12/18 09:08:58;;;;;;;23.83;11.57;;;;;;;5.55;81.33;96127.59;4986737;28;20292;-75
2022/12/18 09:11:26;;;;;;;23.97;11.73;;;;;;;5.68;79.41;96133.28;4983080;28;20251;-75
2022/12/18 09:13:53;;;;;;;27.10;11.70;;;;;;;5.56;78.38;96117.97;4990212;28;20235;-75
2022/12/18 09:16:20;;;;;;;27.37;11.50;;;;;;;5.44;79.15;96121.78;4978334;28;20236;-76
2022/12/18 09:18:46;;;;;;;24.67;12.03;;;;;;;5.46;80.53;96104.16;4987836;28;20177;-77
2022/12/18 09:21:14;;;;;;;35.63;15.30;;;;;;;5.61;79.80;96119.19;4998125;28;20203;-76
2022/12/18 09:23:40;;;;;;;28.07;12.03;;;;;;;5.48;79.14;96095.19;4985029;28;20177;-76
2022/12/18 09:26:06;;;;;;;17.87;9.87;;;;;;;5.74;78.95;96120.56;4986635;28;20196;-76
2022/12/18 09:28:32;;;;;;;19.40;9.83;;;;;;;5.63;78.12;96105.94;4995953;28;20177;-75
2022/12/18 09:30:58;;;;;;;20.60;10.30;;;;;;;5.67;78.12;96102.91;4983673;28;20188;-76
2022/12/18 09:33:23;;;;;;;19.77;10.10;;;;;;;5.70;77.76;96112.25;5002455;28;20184;-77
2022/12/18 09:35:49;;;;;;;22.43;11.70;;;;;;;5.76;77.11;96124.69;4983156;28;20224;-76
2022/12/18 09:38:18;;;;;;;23.00;11.73;;;;;;;5.71;77.40;96120.91;4989476;28;20185;-77
2022/12/18 09:40:53;;;;;;;21.83;11.07;;;;;;;5.57;77.24;96099.53;4984743;28;20961;-76
2022/12/18 09:43:28;;;;;;;26.97;12.30;;;;;;;5.69;77.76;96119.25;4994118;28;20536;-76
2022/12/18 09:46:04;;;;;;;21.63;10.67;;;;;;;5.76;77.70;96127.31;4988205;28;20180;-76
2022/12/18 09:48:42;;;;;;;18.63;10.23;;;;;;;5.80;77.13;96125.19;4986419;28;20188;-77
2022/12/18 09:51:13;;;;;;;20.83;10.53;;;;;;;5.76;76.48;96109.00;4986685;28;20224;-77
2022/12/18 09:53:41;;;;;;;19.40;11.30;;;;;;;5.88;77.29;96117.50;4985156;28;20177;-77
2022/12/18 09:56:15;;;;;;;21.10;11.27;;;;;;;5.94;77.74;96120.31;4986891;28;20684;-77
2022/12/18 09:58:51;;;;;;;19.90;10.73;;;;;;;6.04;77.56;96125.47;4979720;28;20628;-77
2022/12/18 10:01:24;;;;;;;23.23;10.50;;;;;;;6.14;76.98;96125.38;4983473;28;20218;-76
2022/12/18 10:03:51;;;;;;;18.83;11.63;;;;;;;6.06;75.64;96105.19;4990236;28;20189;-75
2022/12/18 10:06:35;;;;;;;23.47;10.90;;;;;;;6.01;75.61;96095.22;4984341;28;20926;-77
2022/12/18 10:09:20;;;;;;;23.43;10.97;;;;;;;6.17;75.79;96118.03;4994954;28;20196;-78
2022/12/18 10:11:52;;;;;;;24.13;11.03;;;;;;;6.24;75.64;96121.66;4986481;28;20232;-77
2022/12/18 10:14:17;;;;;;;16.20;8.20;;;;;;;6.15;74.86;96127.81;4996189;28;20254;-77
2022/12/18 10:16:50;;;;;;;20.10;10.13;;;;;;;6.16;74.53;96115.56;4983995;28;20688;-76
2022/12/18 10:19:24;;;;;;;23.33;10.27;;;;;;;6.05;74.58;96119.25;4985611;28;20208;-75
2022/12/18 10:22:08;;;;;;;18.50;9.30;;;;;;;6.18;75.55;96126.69;4986866;28;20879;-77
2022/12/18 10:24:44;;;;;;;28.20;13.03;;;;;;;5.98;76.09;96094.69;4978928;28;20720;-77
2022/12/18 10:27:17;;;;;;;23.23;11.63;;;;;;;6.36;75.98;96127.47;4992109;28;20660;-76
2022/12/18 10:29:44;;;;;;;19.37;9.80;;;;;;;6.40;75.38;96124.38;4982458;28;20259;-77
2022/12/18 10:32:16;;;;;;;21.10;10.63;;;;;;;6.47;74.98;96129.03;4990228;28;20181;-77
2022/12/18 10:34:45;;;;;;;22.13;10.43;;;;;;;6.55;75.17;96132.53;4982678;28;20578;-78
2022/12/18 10:37:17;;;;;;;26.40;13.27;;;;;;;6.55;75.03;96126.47;4990722;28;20210;-77
2022/12/18 10:39:42;;;;;;;18.37;10.50;;;;;;;6.42;74.27;96112.00;4987832;28;20188;-76
2022/12/18 10:42:25;;;;;;;19.93;10.40;;;;;;;6.48;74.55;96120.22;4995197;28;20161;-77
2022/12/18 10:45:03;;;;;;;23.50;11.20;;;;;;;6.51;73.77;96117.28;4997259;28;20181;-77
2022/12/18 10:47:30;;;;;;;20.53;11.60;;;;;;;6.61;73.41;96121.44;5002083;28;20547;-77
2022/12/18 10:49:56;;;;;;;21.37;10.90;;;;;;;6.52;73.97;96090.97;5007374;28;20169;-76
2022/12/18 10:52:24;;;;;;;22.47;11.87;;;;;;;6.69;73.30;96108.38;5007666;28;20175;-74
2022/12/18 10:54:53;;;;;;;24.90;11.90;;;;;;;6.68;73.37;96122.44;5000466;28;20230;-77
2022/12/18 10:57:50;;;;;;;25.13;12.37;;;;;;;6.67;74.29;96117.38;5007938;28;20251;-75
2022/12/18 11:00:28;;;;;;;26.63;12.83;;;;;;;6.72;73.84;96112.50;4993862;28;20216;-76
2022/12/18 11:02:55;;;;;;;18.97;10.37;;;;;;;6.76;72.10;96116.44;4998323;28;20169;-76
2022/12/18 11:05:24;;;;;;;17.97;10.30;;;;;;;6.76;71.79;96114.63;4989401;28;20176;-75
2022/12/18 11:07:53;;;;;;;19.50;9.73;;;;;;;6.74;70.87;96127.06;4990267;28;20228;-76
2022/12/18 11:10:22;;;;;;;18.63;9.73;;;;;;;6.81;71.93;96124.66;4987924;28;20580;-76
2022/12/18 11:12:48;;;;;;;19.40;10.27;;;;;;;6.80;72.40;96118.59;5000671;28;20177;-76
2022/12/18 11:15:21;;;;;;;19.53;10.23;;;;;;;6.83;71.29;96122.69;4996047;28;20263;-77
2022/12/18 11:17:49;;;;;;;20.30;9.57;;;;;;;6.90;71.59;96125.50;4998686;28;20193;-76
2022/12/18 11:20:35;;;;;;;21.30;9.70;;;;;;;6.82;70.82;96121.88;4994004;28;20326;-76
2022/12/18 11:23:04;;;;;;;18.43;10.13;;;;;;;6.55;71.46;96110.78;4988714;28;20172;-76
2022/12/18 11:25:30;;;;;;;21.03;10.63;;;;;;;6.77;73.32;96121.50;4980331;28;20633;-75
2022/12/18 11:28:02;;;;;;;26.20;12.23;;;;;;;6.82;73.24;96121.06;4982519;28;20571;-75
2022/12/18 11:30:33;;;;;;;20.20;10.93;;;;;;;6.98;71.24;96131.59;4979610;28;20260;-75
2022/12/18 11:33:20;;;;;;;21.10;11.33;;;;;;;6.91;71.78;96127.16;4983653;28;20173;-75
2022/12/18 11:35:58;;;;;;;22.87;12.80;;;;;;;6.95;71.79;96121.44;4988682;28;21138;-75
2022/12/18 11:38:29;;;;;;;24.77;13.63;;;;;;;6.93;71.22;96112.09;4989623;28;20177;-76
2022/12/18 11:41:22;;;;;;;25.27;12.90;;;;;;;6.82;70.27;96113.22;4990847;28;20184;-74
2022/12/18 11:43:52;;;;;;;24.37;12.20;;;;;;;6.88;70.66;96112.56;4985769;28;20221;-76